createdAt,value
2019-05-13T00:02:17.048Z,2.27
2019-05-13T00:04:44.386Z,1.90
2019-05-13T00:07:13.464Z,1.87
2019-05-13T00:09:41.133Z,2.10
2019-05-13T00:12:09.294Z,2.53
2019-05-13T00:14:36.809Z,2.50
2019-05-13T00:17:04.505Z,2.53
2019-05-13T00:19:33.878Z,2.23
2019-05-13T00:22:03.758Z,2.37
2019-05-13T00:24:30.970Z,2.70
2019-05-13T00:26:58.389Z,2.47
2019-05-13T00:29:27.322Z,2.30
2019-05-13T00:31:54.792Z,2.43
2019-05-13T00:34:24.201Z,1.90
2019-05-13T00:37:07.276Z,2.63
2019-05-13T00:39:21.693Z,1.80
2019-05-13T00:41:49.468Z,2.10
2019-05-13T00:44:16.938Z,2.60
2019-05-13T00:46:44.568Z,2.60
2019-05-13T00:49:13.410Z,2.10
2019-05-13T00:51:44.241Z,2.33
2019-05-13T00:54:13.339Z,2.13
2019-05-13T00:56:43.432Z,2.60
2019-05-13T00:59:10.593Z,2.60
2019-05-13T01:01:38.762Z,2.33
2019-05-13T01:04:06.277Z,2.13
2019-05-13T01:06:34.206Z,2.00
2019-05-13T01:09:04.025Z,2.47
2019-05-13T01:11:31.377Z,2.00
2019-05-13T01:13:59.394Z,2.27
2019-05-13T01:16:26.752Z,2.30
2019-05-13T01:18:54.215Z,2.30
2019-05-13T01:21:23.922Z,1.83
2019-05-13T01:23:54.211Z,2.07
2019-05-13T01:26:23.180Z,2.50
2019-05-13T01:28:50.906Z,2.83
2019-05-13T01:31:18.240Z,1.70
2019-05-13T01:33:46.191Z,2.47
2019-05-13T01:36:13.922Z,2.53
2019-05-13T01:38:43.561Z,1.93
2019-05-13T01:41:10.854Z,2.30
2019-05-13T01:43:38.315Z,2.37
2019-05-13T01:46:05.645Z,1.60
2019-05-13T01:48:33.372Z,2.20
2019-05-13T01:51:03.761Z,2.33
2019-05-13T01:53:33.438Z,2.73
2019-05-13T01:56:00.649Z,2.57
2019-05-13T01:58:28.049Z,1.90
2019-05-13T02:00:55.707Z,1.90
2019-05-13T02:03:24.634Z,2.37
2019-05-13T02:05:54.400Z,1.97
2019-05-13T02:08:24.360Z,2.37
2019-05-13T02:10:56.108Z,2.03
2019-05-13T02:13:24.734Z,2.17
2019-05-13T02:15:54.999Z,2.10
2019-05-13T02:18:24.392Z,2.00
2019-05-13T02:20:54.876Z,2.13
2019-05-13T02:23:23.867Z,2.23
2019-05-13T02:25:53.832Z,2.07
2019-05-13T02:28:20.782Z,2.37
2019-05-13T02:30:48.768Z,2.40
2019-05-13T02:33:16.522Z,2.47
2019-05-13T02:35:44.208Z,2.50
2019-05-13T02:38:23.544Z,2.77
2019-05-13T02:40:43.175Z,1.83
2019-05-13T02:43:13.273Z,2.10
2019-05-13T02:45:42.662Z,2.57
2019-05-13T02:48:12.489Z,2.17
2019-05-13T02:50:38.600Z,2.93
2019-05-13T02:53:06.443Z,2.00
2019-05-13T02:55:34.812Z,2.80
2019-05-13T02:58:03.270Z,2.43
2019-05-13T03:00:32.846Z,2.40
2019-05-13T03:03:03.180Z,2.53
2019-05-13T03:05:32.074Z,4.00
2019-05-13T03:08:03.037Z,2.73
2019-05-13T03:10:29.082Z,2.80
2019-05-13T03:12:56.964Z,2.40
2019-05-13T03:15:26.454Z,2.80
2019-05-13T03:18:04.569Z,2.67
2019-05-13T03:20:33.284Z,3.50
2019-05-13T03:23:03.102Z,2.90
2019-05-13T03:25:33.085Z,3.23
2019-05-13T03:28:03.215Z,3.23
2019-05-13T03:30:35.158Z,2.67
2019-05-13T03:33:09.731Z,3.07
2019-05-13T03:35:36.038Z,3.23
2019-05-13T03:38:03.387Z,3.10
2019-05-13T03:40:32.995Z,3.12
2019-05-13T03:43:02.749Z,3.07
2019-05-13T03:45:32.880Z,2.37
2019-05-13T03:48:03.924Z,2.47
2019-05-13T03:50:34.150Z,2.87
2019-05-13T03:53:03.095Z,2.63
2019-05-13T03:55:32.594Z,2.93
2019-05-13T03:58:02.989Z,3.70
2019-05-13T04:00:32.061Z,2.77
2019-05-13T04:02:59.092Z,3.50
2019-05-13T04:05:26.559Z,2.60
2019-05-13T04:07:54.412Z,2.97
2019-05-13T04:10:22.911Z,3.40
2019-05-13T04:12:52.703Z,2.37
2019-05-13T04:15:23.395Z,3.70
2019-05-13T04:17:53.116Z,2.57
2019-05-13T04:20:22.772Z,3.20
2019-05-13T04:22:52.693Z,2.85
2019-05-13T04:25:18.818Z,2.80
2019-05-13T04:27:46.288Z,3.57
2019-05-13T04:30:14.141Z,3.10
2019-05-13T04:32:44.262Z,3.20
2019-05-13T04:35:12.616Z,3.50
2019-05-13T04:37:43.010Z,2.75
2019-05-13T04:40:12.685Z,3.00
2019-05-13T04:42:42.658Z,2.83
2019-05-13T04:45:13.013Z,3.47
2019-05-13T04:47:39.418Z,2.83
2019-05-13T04:50:07.014Z,2.77
2019-05-13T04:52:34.863Z,3.50
2019-05-13T04:55:03.652Z,3.50
2019-05-13T04:57:33.188Z,3.53
2019-05-13T05:00:04.030Z,3.20
2019-05-13T05:02:55.139Z,3.40
2019-05-13T05:05:45.812Z,4.37
2019-05-13T05:09:12.549Z,3.20
2019-05-13T05:12:12.441Z,3.83
2019-05-13T05:15:07.798Z,3.63
2019-05-13T05:18:22.310Z,3.30
2019-05-13T05:21:01.571Z,3.80
2019-05-13T05:23:51.858Z,3.47
2019-05-13T05:27:01.454Z,3.60
2019-05-13T05:30:07.830Z,3.17
2019-05-13T05:33:02.060Z,3.67
2019-05-13T05:35:47.217Z,4.27
2019-05-13T05:39:04.387Z,4.20
2019-05-13T05:41:34.346Z,3.70
2019-05-13T05:44:02.394Z,4.57
2019-05-13T05:46:32.401Z,4.10
2019-05-13T05:49:05.318Z,4.50
2019-05-13T05:51:32.980Z,4.43
2019-05-13T05:54:02.554Z,5.80
2019-05-13T05:56:32.510Z,5.47
2019-05-13T05:59:03.002Z,5.70
2019-05-13T06:01:32.787Z,4.83
2019-05-13T06:04:01.602Z,5.80
2019-05-13T06:06:33.011Z,4.93
2019-05-13T06:09:01.746Z,5.37
2019-05-13T06:11:31.744Z,4.50
2019-05-13T06:14:02.126Z,4.97
2019-05-13T06:16:28.949Z,4.63
2019-05-13T06:18:56.704Z,4.27
2019-05-13T06:21:24.243Z,5.50
2019-05-13T06:23:51.941Z,4.73
2019-05-13T06:26:23.563Z,5.27
2019-05-13T06:28:52.068Z,4.50
2019-05-13T06:31:21.584Z,4.57
2019-05-13T06:33:51.306Z,4.63
2019-05-13T06:36:18.532Z,4.77
2019-05-13T06:38:46.572Z,4.27
2019-05-13T06:41:14.830Z,4.10
2019-05-13T06:43:42.983Z,5.83
2019-05-13T06:46:12.368Z,4.80
2019-05-13T06:48:41.510Z,4.50
2019-05-13T06:51:11.501Z,4.37
2019-05-13T06:53:38.473Z,4.00
2019-05-13T06:56:05.995Z,4.40
2019-05-13T06:58:33.811Z,4.77
2019-05-13T07:01:03.645Z,5.50
2019-05-13T07:03:32.282Z,4.00
2019-05-13T07:06:01.782Z,4.23
2019-05-13T07:08:31.434Z,4.83
2019-05-13T07:10:59.001Z,4.23
2019-05-13T07:13:26.718Z,4.10
2019-05-13T07:15:54.054Z,4.30
2019-05-13T07:18:21.962Z,3.77
2019-05-13T07:20:49.795Z,4.30
2019-05-13T07:23:17.586Z,4.50
2019-05-13T07:25:45.081Z,4.57
2019-05-13T07:28:12.885Z,4.07
2019-05-13T07:30:42.599Z,3.73
2019-05-13T07:33:12.566Z,3.70
2019-05-13T07:35:44.137Z,4.07
2019-05-13T07:38:11.683Z,3.83
2019-05-13T07:40:41.839Z,4.10
2019-05-13T07:43:12.060Z,3.93
2019-05-13T07:45:39.284Z,3.60
2019-05-13T07:48:19.423Z,3.97
2019-05-13T07:50:50.347Z,3.90
2019-05-13T07:53:05.988Z,3.40
2019-05-13T07:55:33.620Z,3.70
2019-05-13T07:58:02.088Z,3.70
2019-05-13T08:00:32.663Z,3.87
2019-05-13T08:03:01.632Z,3.50
2019-05-13T08:05:31.425Z,3.60
2019-05-13T08:07:58.911Z,3.60
2019-05-13T08:10:26.834Z,3.40
2019-05-13T08:12:54.184Z,2.83
2019-05-13T08:15:22.895Z,3.20
2019-05-13T08:17:52.511Z,4.13
2019-05-13T08:20:22.114Z,3.00
2019-05-13T08:22:51.856Z,3.10
2019-05-13T08:25:19.210Z,2.70
2019-05-13T08:27:46.641Z,2.80
2019-05-13T08:30:18.091Z,2.60
2019-05-13T08:32:45.104Z,2.63
2019-05-13T08:35:12.910Z,4.43
2019-05-13T08:37:41.393Z,3.00
2019-05-13T08:40:11.886Z,3.10
2019-05-13T08:42:40.879Z,2.77
2019-05-13T08:45:08.672Z,3.00
2019-05-13T08:47:36.037Z,2.90
2019-05-13T08:50:04.572Z,2.80
2019-05-13T08:52:32.095Z,2.33
2019-05-13T08:55:01.479Z,3.23
2019-05-13T08:57:31.423Z,3.20
2019-05-13T08:59:58.265Z,2.50
2019-05-13T09:02:27.260Z,2.17
2019-05-13T09:04:54.746Z,2.70
2019-05-13T09:07:24.392Z,2.07
2019-05-13T09:09:52.042Z,1.93
2019-05-13T09:12:29.661Z,2.43
2019-05-13T09:14:52.214Z,2.13
2019-05-13T09:17:21.217Z,2.57
2019-05-13T09:19:48.383Z,2.53
2019-05-13T09:22:16.034Z,2.30
2019-05-13T09:24:43.817Z,2.77
2019-05-13T09:27:12.167Z,2.80
2019-05-13T09:29:42.331Z,2.30
2019-05-13T09:32:11.918Z,2.40
2019-05-13T09:34:41.989Z,3.30
2019-05-13T09:37:08.614Z,2.20
2019-05-13T09:39:36.123Z,2.23
2019-05-13T09:42:03.721Z,2.10
2019-05-13T09:44:32.746Z,2.17
2019-05-13T09:47:02.646Z,1.93
2019-05-13T09:49:32.880Z,1.90
2019-05-13T09:52:01.691Z,2.97
2019-05-13T09:54:32.944Z,2.20
2019-05-13T09:57:01.430Z,1.67
2019-05-13T09:59:28.216Z,2.03
2019-05-13T10:01:55.714Z,2.17
2019-05-13T10:04:23.112Z,2.00
2019-05-13T10:06:50.525Z,1.83
2019-05-13T10:09:18.386Z,3.30
2019-05-13T10:11:45.708Z,2.30
2019-05-13T10:14:13.268Z,2.43
2019-05-13T10:16:42.546Z,2.37
2019-05-13T10:19:12.389Z,1.60
2019-05-13T10:21:41.397Z,2.80
2019-05-13T10:24:08.968Z,2.00
2019-05-13T10:26:37.001Z,2.67
2019-05-13T10:29:04.905Z,3.50
2019-05-13T10:31:32.293Z,3.07
2019-05-13T10:34:02.066Z,2.97
2019-05-13T10:36:29.066Z,2.70
2019-05-13T10:38:56.494Z,2.10
2019-05-13T10:41:24.166Z,2.40
2019-05-13T10:43:52.238Z,2.80
2019-05-13T10:46:22.071Z,1.77
2019-05-13T10:48:52.416Z,1.60
2019-05-13T10:51:22.116Z,2.27
2019-05-13T10:53:48.464Z,1.57
2019-05-13T10:56:16.252Z,1.50
2019-05-13T10:58:44.610Z,2.13
2019-05-13T11:01:12.124Z,2.63
2019-05-13T11:03:42.507Z,1.83
2019-05-13T11:06:11.635Z,2.60
2019-05-13T11:08:41.990Z,2.20
2019-05-13T11:11:08.413Z,1.87
2019-05-13T11:13:52.232Z,1.40
2019-05-13T11:16:05.526Z,1.80
2019-05-13T11:18:33.395Z,1.30
2019-05-13T11:21:01.956Z,1.30
2019-05-13T11:23:32.194Z,1.80
2019-05-13T11:26:02.814Z,1.57
2019-05-13T11:28:31.706Z,1.53
2019-05-13T11:30:59.887Z,1.30
2019-05-13T11:33:31.578Z,1.70
2019-05-13T11:35:59.268Z,1.70
2019-05-13T11:38:26.636Z,1.30
2019-05-13T11:40:54.450Z,2.07
2019-05-13T11:43:27.241Z,1.40
2019-05-13T11:45:51.790Z,1.73
2019-05-13T11:48:19.595Z,1.50
2019-05-13T11:50:50.462Z,1.70
2019-05-13T11:53:31.636Z,1.90
2019-05-13T11:55:46.332Z,1.47
2019-05-13T11:58:14.306Z,1.73
2019-05-13T12:00:53.097Z,2.00
2019-05-13T12:03:23.023Z,1.43
2019-05-13T12:05:53.417Z,1.30
2019-05-13T12:08:22.459Z,1.60
2019-05-13T12:10:48.230Z,1.30
2019-05-13T12:13:16.025Z,1.50
2019-05-13T12:15:49.393Z,1.40
2019-05-13T12:18:13.520Z,1.10
2019-05-13T12:20:42.712Z,1.70
2019-05-13T12:23:13.010Z,1.33
2019-05-13T12:25:42.903Z,1.13
2019-05-13T12:28:11.375Z,1.80
2019-05-13T12:30:39.283Z,2.07
2019-05-13T12:33:08.496Z,1.50
2019-05-13T12:35:36.261Z,1.20
2019-05-13T12:38:03.741Z,1.60
2019-05-13T12:40:33.674Z,1.37
2019-05-13T12:43:02.263Z,1.67
2019-05-13T12:45:29.970Z,1.40
2019-05-13T12:47:57.923Z,1.27
2019-05-13T12:50:26.110Z,1.40
2019-05-13T12:52:53.625Z,1.93
2019-05-13T12:55:21.806Z,1.37
2019-05-13T12:57:52.042Z,1.33
2019-05-13T13:00:23.697Z,1.50
2019-05-13T13:02:52.061Z,1.40
2019-05-13T13:05:23.756Z,1.47
2019-05-13T13:08:13.769Z,1.57
2019-05-13T13:10:19.100Z,1.20
2019-05-13T13:12:47.098Z,1.43
2019-05-13T13:15:35.810Z,1.20
2019-05-13T13:17:44.031Z,1.60
2019-05-13T13:20:15.157Z,1.43
2019-05-13T13:22:42.284Z,1.73
2019-05-13T13:25:13.206Z,1.10
2019-05-13T13:28:06.764Z,1.50
2019-05-13T13:30:11.087Z,1.60
2019-05-13T13:32:38.478Z,1.33
2019-05-13T13:35:06.567Z,1.13
2019-05-13T13:37:35.215Z,1.33
2019-05-13T13:40:04.652Z,1.60
2019-05-13T13:42:33.068Z,2.00
2019-05-13T13:45:05.321Z,1.73
2019-05-13T13:47:33.229Z,1.40
2019-05-13T13:49:59.266Z,1.43
2019-05-13T13:52:27.054Z,1.50
2019-05-13T13:55:02.945Z,1.40
2019-05-13T13:57:25.774Z,1.40
2019-05-13T14:00:19.924Z,1.40
2019-05-13T14:02:25.060Z,1.73
2019-05-13T14:04:54.357Z,1.80
2019-05-13T14:07:31.294Z,1.83
2019-05-13T14:09:51.529Z,1.27
2019-05-13T14:12:21.881Z,1.50
2019-05-13T14:14:51.904Z,1.00
2019-05-13T14:17:18.665Z,1.50
2019-05-13T14:19:46.164Z,1.13
2019-05-13T14:22:13.646Z,1.33
2019-05-13T14:24:42.539Z,1.23
2019-05-13T14:27:12.073Z,1.30
2019-05-13T14:29:46.001Z,1.50
2019-05-13T14:32:09.412Z,1.30
2019-05-13T14:34:37.036Z,1.30
2019-05-13T14:37:04.830Z,1.97
2019-05-13T14:39:36.083Z,1.60
2019-05-13T14:42:03.048Z,1.40
2019-05-13T14:44:32.462Z,1.30
2019-05-13T14:47:01.586Z,1.50
2019-05-13T14:49:31.666Z,1.23
2019-05-13T14:52:01.294Z,1.00
2019-05-13T14:54:29.275Z,1.70
2019-05-13T14:56:58.006Z,1.40
2019-05-13T14:59:25.516Z,1.23
2019-05-13T15:01:53.443Z,1.40
2019-05-13T15:04:22.192Z,1.17
2019-05-13T15:06:51.253Z,1.70
2019-05-13T15:09:18.880Z,1.70
2019-05-13T15:11:47.084Z,1.37
2019-05-13T15:14:14.688Z,1.03
2019-05-13T15:16:42.600Z,1.67
2019-05-13T15:19:12.004Z,1.00
2019-05-13T15:21:41.286Z,1.70
2019-05-13T15:24:08.867Z,1.47
2019-05-13T15:26:36.401Z,1.17
2019-05-13T15:29:05.063Z,1.33
2019-05-13T15:31:33.846Z,1.40
2019-05-13T15:34:02.494Z,1.50
2019-05-13T15:36:31.542Z,1.13
2019-05-13T15:39:01.480Z,1.50
2019-05-13T15:41:31.069Z,1.97
2019-05-13T15:43:58.481Z,1.27
2019-05-13T15:46:26.132Z,1.57
2019-05-13T15:48:53.650Z,1.73
2019-05-13T15:51:22.050Z,1.47
2019-05-13T15:53:52.497Z,1.60
2019-05-13T15:56:21.810Z,1.40
2019-05-13T15:58:52.606Z,1.40
2019-05-13T16:01:23.549Z,1.10
2019-05-13T16:03:52.529Z,1.63
2019-05-13T16:06:20.526Z,0.90
2019-05-13T16:08:47.934Z,1.00
2019-05-13T16:11:15.480Z,1.00
2019-05-13T16:13:43.236Z,1.57
2019-05-13T16:16:12.267Z,0.90
2019-05-13T16:18:41.954Z,1.27
2019-05-13T16:21:11.481Z,1.30
2019-05-13T16:23:38.636Z,1.33
2019-05-13T16:26:06.457Z,1.00
2019-05-13T16:28:34.109Z,1.43
2019-05-13T16:31:02.425Z,1.27
2019-05-13T16:33:31.354Z,1.60
2019-05-13T16:36:02.265Z,1.20
2019-05-13T16:38:29.061Z,1.30
2019-05-13T16:40:56.980Z,1.73
2019-05-13T16:43:24.913Z,1.37
2019-05-13T16:45:52.939Z,1.30
2019-05-13T16:48:21.548Z,1.40
2019-05-13T16:50:49.368Z,1.07
2019-05-13T16:53:16.725Z,1.27
2019-05-13T16:55:44.220Z,1.07
2019-05-13T16:58:12.559Z,1.40
2019-05-13T17:00:42.437Z,1.10
2019-05-13T17:03:11.485Z,1.07
2019-05-13T17:05:39.068Z,1.20
2019-05-13T17:08:06.769Z,1.90
2019-05-13T17:10:34.332Z,0.80
2019-05-13T17:13:02.948Z,1.40
2019-05-13T17:15:31.307Z,1.30
2019-05-13T17:18:09.300Z,1.37
2019-05-13T17:20:28.792Z,1.20
2019-05-13T17:22:56.234Z,1.13
2019-05-13T17:25:23.942Z,1.50
2019-05-13T17:27:51.590Z,1.27
2019-05-13T17:30:19.218Z,1.50
2019-05-13T17:32:47.106Z,1.27
2019-05-13T17:35:14.977Z,1.30
2019-05-13T17:37:42.479Z,1.67
2019-05-13T17:40:11.812Z,1.10
2019-05-13T17:42:41.484Z,1.17
2019-05-13T17:45:11.321Z,1.43
2019-05-13T17:47:41.609Z,1.30
2019-05-13T17:50:08.787Z,1.23
2019-05-13T17:52:36.297Z,1.30
2019-05-13T17:55:03.826Z,1.40
2019-05-13T17:57:32.031Z,1.10
2019-05-13T18:00:00.220Z,1.10
2019-05-13T18:02:28.338Z,1.33
2019-05-13T18:04:55.832Z,0.90
2019-05-13T18:07:23.281Z,1.23
2019-05-13T18:09:51.957Z,1.20
2019-05-13T18:12:22.286Z,1.17
2019-05-13T18:14:51.741Z,1.37
2019-05-13T18:17:18.947Z,0.70
2019-05-13T18:19:46.488Z,0.90
2019-05-13T18:22:13.843Z,1.50
2019-05-13T18:24:41.325Z,1.53
2019-05-13T18:27:08.880Z,0.83
2019-05-13T18:29:36.381Z,1.33
2019-05-13T18:32:05.131Z,1.30
2019-05-13T18:34:32.887Z,1.10
2019-05-13T18:37:02.489Z,1.57
2019-05-13T18:39:32.272Z,1.53
2019-05-13T18:41:59.843Z,1.00
2019-05-13T18:44:27.158Z,1.30
2019-05-13T18:46:55.095Z,1.57
2019-05-13T18:49:22.577Z,1.67
2019-05-13T18:51:50.357Z,1.40
2019-05-13T18:54:17.681Z,1.00
2019-05-13T18:56:46.631Z,1.10
2019-05-13T18:59:14.504Z,1.07
2019-05-13T19:01:42.142Z,1.23
2019-05-13T19:04:11.479Z,1.23
2019-05-13T19:06:39.183Z,1.27
2019-05-13T19:09:06.787Z,1.43
2019-05-13T19:11:34.620Z,1.33
2019-05-13T19:14:01.992Z,1.10
2019-05-13T19:16:31.911Z,1.13
2019-05-13T19:19:11.901Z,1.20
2019-05-13T19:21:31.061Z,1.23
2019-05-13T19:23:59.172Z,1.40
2019-05-13T19:26:27.467Z,1.33
2019-05-13T19:28:54.678Z,1.20
2019-05-13T19:31:22.419Z,1.07
2019-05-13T19:33:52.190Z,0.80
2019-05-13T19:36:21.098Z,1.10
2019-05-13T19:38:51.112Z,1.73
2019-05-13T19:41:19.159Z,1.37
2019-05-13T19:43:47.847Z,1.60
2019-05-13T19:46:15.424Z,1.10
2019-05-13T19:48:43.850Z,1.50
2019-05-13T19:51:11.492Z,1.17
2019-05-13T19:53:41.046Z,1.53
2019-05-13T19:56:08.734Z,1.57
2019-05-13T19:58:36.534Z,1.13
2019-05-13T20:01:05.098Z,1.40
2019-05-13T20:03:32.833Z,1.20
2019-05-13T20:06:02.238Z,1.07
2019-05-13T20:08:32.084Z,1.20
2019-05-13T20:11:01.880Z,1.43
2019-05-13T20:13:29.581Z,1.00
2019-05-13T20:15:57.102Z,1.33
2019-05-13T20:18:26.576Z,0.90
2019-05-13T20:20:54.355Z,1.23
2019-05-13T20:23:21.903Z,1.07
2019-05-13T20:25:52.210Z,1.10
2019-05-13T20:28:20.759Z,1.00
2019-05-13T20:30:48.478Z,1.20
2019-05-13T20:33:16.244Z,1.17
2019-05-13T20:35:43.599Z,1.27
2019-05-13T20:38:11.640Z,1.27
2019-05-13T20:40:41.347Z,1.87
2019-05-13T20:43:11.769Z,1.23
2019-05-13T20:45:38.973Z,1.47
2019-05-13T20:48:06.718Z,1.60
2019-05-13T20:50:34.111Z,1.83
2019-05-13T20:53:01.840Z,1.73
2019-05-13T20:55:29.394Z,1.50
2019-05-13T20:57:56.901Z,1.13
2019-05-13T21:00:24.818Z,1.80
2019-05-13T21:02:52.269Z,1.73
2019-05-13T21:05:21.720Z,1.13
2019-05-13T21:07:51.540Z,1.30
2019-05-13T21:10:20.949Z,1.57
2019-05-13T21:12:48.416Z,1.47
2019-05-13T21:15:15.989Z,1.30
2019-05-13T21:17:43.654Z,1.53
2019-05-13T21:20:20.731Z,2.13
2019-05-13T21:22:42.360Z,1.27
2019-05-13T21:25:10.164Z,1.70
2019-05-13T21:27:38.750Z,1.67
2019-05-13T21:30:06.557Z,1.50
2019-05-13T21:32:33.923Z,1.43
2019-05-13T21:35:01.791Z,1.63
2019-05-13T21:37:29.441Z,1.60
2019-05-13T21:39:57.163Z,1.40
2019-05-13T21:42:24.695Z,1.30
2019-05-13T21:44:52.171Z,2.20
2019-05-13T21:47:21.868Z,1.50
2019-05-13T21:49:51.570Z,1.43
2019-05-13T21:52:23.577Z,1.13
2019-05-13T21:54:51.475Z,1.77
2019-05-13T21:57:19.068Z,1.43
2019-05-13T21:59:46.805Z,1.43
2019-05-13T22:02:14.300Z,1.43
2019-05-13T22:04:41.910Z,1.40
2019-05-13T22:07:12.219Z,1.30
2019-05-13T22:09:42.290Z,1.50
2019-05-13T22:12:10.064Z,1.30
2019-05-13T22:14:37.684Z,1.37
2019-05-13T22:17:05.821Z,1.93
2019-05-13T22:19:33.950Z,1.33
2019-05-13T22:22:02.230Z,1.57
2019-05-13T22:24:31.258Z,1.70
2019-05-13T22:26:58.960Z,1.73
2019-05-13T22:29:26.763Z,2.07
2019-05-13T22:31:54.926Z,1.33
2019-05-13T22:34:24.106Z,1.50
2019-05-13T22:36:52.101Z,1.57
2019-05-13T22:39:21.899Z,1.37
2019-05-13T22:41:49.282Z,1.30
2019-05-13T22:44:18.554Z,1.87
2019-05-13T22:46:46.612Z,1.30
2019-05-13T22:49:14.440Z,1.53
2019-05-13T22:51:42.480Z,1.77
2019-05-13T22:54:11.875Z,1.37
2019-05-13T22:56:41.252Z,1.60
2019-05-13T22:59:09.510Z,1.67
2019-05-13T23:01:37.312Z,1.73
2019-05-13T23:04:04.875Z,2.03
2019-05-13T23:06:32.329Z,1.43
2019-05-13T23:09:01.808Z,2.03
2019-05-13T23:11:31.362Z,1.60
2019-05-13T23:14:07.319Z,1.40
2019-05-13T23:16:31.473Z,1.63
2019-05-13T23:18:59.456Z,1.60
2019-05-13T23:21:26.936Z,1.70
2019-05-13T23:23:54.777Z,1.30
2019-05-13T23:26:22.657Z,1.30
2019-05-13T23:28:52.043Z,1.27
2019-05-13T23:31:19.578Z,1.70
2019-05-13T23:33:46.957Z,1.50
2019-05-13T23:36:14.504Z,1.60
2019-05-13T23:38:42.112Z,1.30
2019-05-13T23:41:11.507Z,1.60
2019-05-13T23:43:39.020Z,2.17
2019-05-13T23:46:06.504Z,1.97
2019-05-13T23:48:34.585Z,1.40
2019-05-13T23:51:02.100Z,1.30
2019-05-13T23:53:31.504Z,1.43
2019-05-13T23:55:59.111Z,1.93
2019-05-13T23:58:26.826Z,1.43
